Main page
METAR-TAF:

METAR-TAF

Airports :

Colonel James Jabara Airport

Wichita, Kansas, United States

latitude: 37-44-59N, longitude: 097-13-08W, elevation: 1417 ft

Current weather observation

The report was made 24 minutes ago, at 00:54 UTC
Wind 12 mph from the South/Southeast
Temperature 77°F
Humidity 54%
Pressure 30.03 in. Hg
Visibility: 10 miles
Clear sky

METAR: KAAO 300054Z AUTO 16010KT 10SM CLR 25/15 A3003 RMK AO2 SLP159 T02500150

Time: 20:18 (01:18 UTC)


TAF: missing

Weather observations and forecasts of more than 4000 airports (METAR and TAF reports).

The available stations are represented by yellow and red dots on the map.

Hover mouse over dot to see the name of the station.

Then click to see weather observations and forecasts.

To change the map : click on the green buttons with a black cross to zoom in, on the green button with a dash to zoom out, or on the green arrows for adjacent maps.


METAR-TAF: